Cactus Peak, Santa Catalina Island Weather observations

Data are for 10 minute period ending at time listed.
 Day   Time   Solar   Ave.   Ave.  Ave.  Vector    Max.   Stn.    Total
  of    of     Rad.   Air    Rel.  Wind   Wind     Wind   Baro.  Precip.
Year   Day            Temp.  Hum.  Speed  Dir.     Gust   Pres.         
2026   (PST)   W/m2    F      %     mph   deg.      mph    mb.     in.  
------------------------------------------------------------------------
 129    4:40    0.0    54   99.9     7     20.7    10.2    999.0   0.00  
 129    4:50    0.0    54   99.9     6     16.8     8.4    999.0   0.00  
 129    5:00    0.0    54   99.9     4     30.9     6.0    999.0   0.00  
 129    5:10    2.0    54   99.9     3     35.0     5.4    999.0   0.00  
 129    5:20    7.0    54   99.9     4     22.6     6.0    999.0   0.00  
 129    5:30   12.0    54   99.9     5      2.0     7.8    999.0   0.00  
 129    5:40   15.0    54   99.9     5     14.1     6.6    999.0   0.00  
 129    5:50   23.0    54   99.9     6     27.9     9.0    999.0   0.00  
 129    6:00   30.0    54   99.9     6     31.8     8.4    999.0   0.00  
 129    6:10   36.0    54   99.9     6     20.1     8.4    999.0   0.00  
 129    6:20   47.0    54   99.9     5     21.5     7.2    999.0   0.00  
 129    6:30   50.0    54   99.9     4     30.5     6.6    999.0   0.00  
 129    6:40   58.0    54   99.9     6     31.6    10.8    999.0   0.00  
 129    6:50   67.0    54   99.9     7     26.5    11.3    999.0   0.00  
 129    7:00   96.0    54   99.9     7     34.2     9.6    999.0   0.00  
 129    7:10  104.0    55   99.9     6     38.3     8.4    999.0   0.00  
 129    7:20  111.0    55   99.9     8     31.0    10.2    999.0   0.00  
 129    7:30  131.0    55   99.9     9     31.9    11.3    999.0   0.00  
 129    7:40  143.0    55   99.9     8     33.8    11.3    999.0   0.00  
 129    7:50  155.0    55   99.9     7     35.4     9.6    999.0   0.00  
 129    8:00  170.0    55   99.9     6     30.7     7.8    999.0   0.00  
 129    8:10  197.0    55   99.9     5     30.6     8.4    999.0   0.00  
 129    8:20  209.0    55   99.9     6     24.0     9.6    999.0   0.00  
 129    8:30  223.0    56   99.9     4     31.3     6.6    999.0   0.00  
 129    8:40  234.0    56   99.9     3     21.5     5.4    999.0   0.00  
 129    8:50  261.0    57   99.9     3     31.1     6.0    999.0   0.00  
 129    9:00  238.0    57   99.9     2     20.4     4.2    999.0   0.00  
 129    9:10  282.0    57   99.9     3     32.4     4.8    999.0   0.00  
 129    9:20  244.0    58   99.9     1    355.0     3.0    999.0   0.00  
 129    9:30  272.0    58   99.9     2    170.4     4.2    999.0   0.00  
 129    9:40  266.0    57   99.9     4    177.7     4.8    999.0   0.00  
 129    9:50  267.0    56   99.9     4    180.7     6.6    999.0   0.00  
 129   10:00  294.0    56   99.9     4    185.5     6.6    999.0   0.00  
 129   10:10  321.0    57   99.9     3    183.2     5.4    999.0   0.00  
 129   10:20  302.0    57   99.9     3    196.1     5.4    999.0   0.00  
 129   10:30  336.0    57   99.9     3    189.2     6.6    999.0   0.00  
 129   10:40  333.0    57   99.9     2    183.9     6.0    999.0   0.00  
 129   10:50  399.0    59   99.9     2    347.4     6.6    999.0   0.00  
 129   11:00  448.0    59   99.9     7    355.2     9.6    999.0   0.00  
 129   11:10  490.0    59   99.9     7    338.3     9.6    999.0   0.00  
 129   11:20  528.0    59   99.9     6    340.7     9.0    999.0   0.00  
 129   11:30  574.0    59   99.9     7    340.7     9.6    999.0   0.00  
 129   11:40  626.0    59   99.9     7    355.5    10.8    999.0   0.00  
 129   11:50  735.0    60   99.9     8      4.0    11.9    999.0   0.00  
 129   12:00  925.0    60   99.9     8     10.1    10.8    999.0   0.00  
 129   12:10  940.0    61   38.4     8     17.8    11.3    999.0   0.00  
 129   12:20  936.0    62    0.4     4     13.2     8.4    999.0   0.00  
 129   12:30  730.0    62    0.4     5    179.5    10.8    999.0   0.00  
 129   12:40  923.0    62    0.5     4    184.7     8.4    999.0   0.00  
 129   12:50  917.0    66   36.8     4    358.2     7.8    999.0   0.00  
 129   13:00  911.0    67   72.5     3    207.1     6.6    999.0   0.00  
 129   13:10  902.0    67   70.0     6    348.1    11.9    999.0   0.00  
 129   13:20  887.0    64   74.1    11    358.8    14.9    999.0   0.00  
 129   13:30  874.0    62   78.3    13      1.6    16.1    999.0   0.00  
 129   13:40  855.0    61   80.2    13    356.6    16.1    999.0   0.00  
 129   13:50  837.0    61   79.1    12    354.8    16.7    999.0   0.00  
 129   14:00  806.0    61   79.5    11    350.2    15.5    999.0   0.00  
 129   14:10  798.0    62   77.6    11    357.1    14.9    999.0   0.00  
 129   14:20  776.0    62   77.5    11    357.8    14.9    999.0   0.00  
 129   14:30  753.0    62   76.6    11      1.4    13.1    999.0   0.00  
 129   14:40  729.0    63   75.3     9      2.0    13.1    999.0   0.00  
 129   14:50  704.0    64   73.3     9    359.5    11.3    999.0   0.00  
 129   15:00  677.0    64   72.6     8      5.5    11.9    999.0   0.00  
 129   15:10  650.0    64   71.5     7     10.4     9.6    999.0   0.00  
 129   15:20  621.0    64   71.7     8      9.9    10.2    999.0   0.00  
 129   15:30  592.0    64   70.8     8      3.5    11.3    999.0   0.00  
 129   15:40  563.0    65   70.0     8    356.5    10.8    999.0   0.00  
 129   15:50  532.0    64   71.9     8    359.5    10.8    999.0   0.00  
 129   16:00  501.0    64   72.1     9    352.0    11.3    999.0   0.00  
 129   16:10  469.0    63   73.5     8    350.8    10.2    999.0   0.00  
 129   16:20  437.0    62   73.7     8    355.5    11.3    999.0   0.00  
 129   16:30  399.0    61   75.6     9    352.8    13.1    999.0   0.00  
 129   16:40  313.0    59   81.4    10    350.9    11.9    999.0   0.00  
 129   16:50  278.0    58   84.3     8    338.2    10.2    999.0   0.00  
 129   17:00  259.0    58   85.1     6    345.3     8.4    999.0   0.00  
 129   17:10  212.0    58   86.0     6    352.0     8.4    999.0   0.00  
 129   17:20  149.0    57   41.2     7    357.1     8.4    999.0   0.00  
 129   17:30  125.0    56    0.4     7    359.2     9.0    999.0   0.00  
 129   17:40  117.0    56    0.5     5    349.6     7.2    999.0   0.00  
 129   17:50   82.0    56    0.5     5    358.4     6.6    999.0   0.00  
 129   18:00   51.0    55    0.4     7    358.4     9.0    999.0   0.00  
 129   18:10   35.0    55   34.5     6    352.2     9.0    999.0   0.00  
 129   18:20   20.0    54   99.9     8    352.0     9.6    999.0   0.00  
 129   18:30   12.0    54   99.9     7    351.5     9.6    999.0   0.00  
 129   18:40    6.0    54   99.9     6    342.0     7.8    999.0   0.00  
 129   18:50    2.0    54   99.9     6    357.9     8.4    999.0   0.00  
 129   19:00    0.0    54   99.9     6      6.1     7.8    999.0   0.00  
 129   19:10    0.0    54   99.9     4    354.4     7.2    999.0   0.00  
 129   19:20    0.0    54   99.9     1    356.4     4.8    999.0   0.00  
 129   19:30    0.0    54   99.9     5    351.3     6.6    999.0   0.00  
 129   19:40    0.0    53   99.9     6      0.4     8.4    999.0   0.00  
 129   19:50    0.0    53   99.9     4    349.4     6.6    999.0   0.00  
 129   20:00    0.0    53   99.9     2      7.6     4.8    999.0   0.00  
 129   20:10    0.0    53   99.9     1     12.7     0.6    999.0   0.00  
 129   20:20    0.0    53   99.9     1     22.0     6.0    999.0   0.00  
 129   20:30    0.0    53   99.9     7     14.6     8.4    999.0   0.00  
 129   20:40    0.0    54   99.9     5    353.9     6.6    999.0   0.00  
 129   20:50    0.0    54   99.9     5      6.9     7.8    999.0   0.00  
 129   21:00    0.0    54   99.9     7     24.9     9.0    999.0   0.00  
 129   21:10    0.0    54   99.9     6     20.2     8.4    999.0   0.00  
 129   21:20    0.0    54   99.9     6     27.4     8.4    999.0   0.00  
 129   21:30    0.0    54   99.9     7     28.1     9.6    999.0   0.00  
 129   21:40    0.0    54   99.9     7     30.9     9.0    999.0   0.00  
 129   21:50    0.0    54   99.9     5     37.0     7.2    999.0   0.00  
 129   22:00    0.0    54   99.9     3     40.4     5.4    999.0   0.00  
 129   22:10    0.0    54   99.9     2     73.4     3.6    999.0   0.00  
 129   22:20    0.0    54   99.9     1    120.1     3.0    999.0   0.00  
 129   22:30    0.0    54   99.9     2    145.7     4.2    999.0   0.00  
 129   22:40    0.0    54   99.9     2    107.7     4.8    999.0   0.00  
 129   22:50    0.0    54   99.9     2    137.3     4.8    999.0   0.00  
 129   23:00    0.0    54   99.9     3    136.8     6.0    999.0   0.00  
 129   23:10    0.0    54   99.9     2    106.7     4.2    999.0   0.00  
 129   23:20    0.0    54   99.9     1     40.5     3.6    999.0   0.00  
 129   23:30    0.0    54   99.9     3     40.4     5.4    999.0   0.00  
 129   23:40    0.0    54   99.9     2     59.6     4.8    999.0   0.00  
 129   23:50    0.0    54   99.9     1     42.2     3.0    999.0   0.00  
 130    0:00    0.0    54   99.9     1     45.8     0.6    999.0   0.00  
 130    0:10    0.0    54   99.9     1     46.2     4.2    999.0   0.00  
 130    0:20    0.0    54   99.9     1     62.9     3.0    999.0   0.00  
 130    0:30    0.0    54   99.9     3    124.7     6.0    999.0   0.00  
 130    0:40    0.0    54   99.9     1    151.6     3.6    999.0   0.00  
 130    0:50    0.0    54   99.9     1    138.3     3.0    999.0   0.00  
 130    1:00    0.0    54   99.9     2    122.2     6.0    999.0   0.00  
 130    1:10    0.0    54   99.9     2    145.9     7.2    999.0   0.00  
 130    1:20    0.0    54   99.9     2    149.7     6.0    999.0   0.00  
 130    1:30    0.0    54   99.9     2    140.1     4.2    999.0   0.00  
 130    1:40    0.0    54   99.9     2    146.5     4.8    999.0   0.00  
 130    1:50    0.0    54   99.9     3    146.4     5.4    999.0   0.00  
 130    2:00    0.0    54   99.9     2    152.4     4.8    999.0   0.00  
 130    2:10    0.0    54   99.9     2    151.6     6.0    999.0   0.00  
 130    2:20    0.0    54   99.9     1    126.0     3.6    999.0   0.00  
 130    2:30    0.0    54   99.9     2    135.9     4.2    999.0   0.00  
 130    2:40    0.0    54   99.9     1    149.4     4.8    999.0   0.00  
 130    2:50    0.0    54   99.9     2    138.2     5.4    999.0   0.00  
 130    3:00    0.0    54   99.9     3    163.6     5.4    999.0   0.00  
 130    3:10    0.0    54   99.9     3    146.5     5.4    999.0   0.00  
 130    3:20    0.0    54   99.9     3    158.5     6.6    999.0   0.00  
 130    3:30    0.0    54   99.9     2    160.6     4.8    999.0   0.00  
 130    3:40    0.0    54   99.9     4    156.1     7.2    999.0   0.00  
 130    3:50    0.0    54   99.9     2    164.3     5.4    999.0   0.00  
 130    4:00    0.0    54   99.9     2    166.1     6.0    999.0   0.00  
 130    4:10    0.0    54   99.9     4    158.9     7.2    999.0   0.00  
 130    4:20    0.0    54   99.9     2    164.6     4.8    999.0   0.00  
 130    4:30    0.0    54   99.9     1    160.2     4.8    999.0   0.00  

Return to Cactus Peak graphs page.


Western Regional Climate Center,wrcc@dri.edu